Time;durP1;ratioP1;P1;durP2;ratioP2;P2;SDS_P1;SDS_P2;PMS_P1;PMS_P2;Temp;Humidity;BMP_temperature;BMP_pressure;BME280_temperature;BME280_humidity;BME280_pressure;Samples;Min_cycle;Max_cycle;Signal;HPM_P1;HPM_P2
2022/04/20 00:03:28;;;;;;;2.90;1.88;;;;;;;8.11;53.80;95284.63;10433439;27;96913;-64
2022/04/20 00:08:32;;;;;;;2.40;1.83;;;;;;;7.98;54.18;95278.09;10431072;27;96978;-64
2022/04/20 00:13:35;;;;;;;3.65;1.95;;;;;;;8.08;53.96;95284.94;10425328;27;96711;-64
2022/04/20 00:18:39;;;;;;;3.65;1.90;;;;;;;8.18;53.94;95272.63;10433657;27;96855;-64
2022/04/20 00:23:42;;;;;;;3.30;1.63;;;;;;;8.02;54.56;95272.56;10425307;27;96931;-64
2022/04/20 00:28:44;;;;;;;2.22;1.70;;;;;;;7.96;54.45;95261.81;10439802;27;96908;-64
2022/04/20 00:33:49;;;;;;;2.50;1.83;;;;;;;7.87;54.41;95264.53;10426463;27;97004;-64
2022/04/20 00:38:51;;;;;;;4.65;2.15;;;;;;;7.80;54.32;95266.94;10439296;27;96779;-64
2022/04/20 00:43:55;;;;;;;3.95;1.90;;;;;;;7.72;54.12;95270.31;10452903;27;97658;-64
2022/04/20 00:49:00;;;;;;;3.20;1.90;;;;;;;7.50;55.52;95270.81;10436065;27;97071;-64
2022/04/20 00:54:03;;;;;;;3.33;1.92;;;;;;;7.33;55.39;95283.69;10444438;27;97137;-64
2022/04/20 00:59:06;;;;;;;3.25;2.17;;;;;;;7.21;55.96;95277.09;10448292;27;97083;-64
2022/04/20 01:04:11;;;;;;;3.60;1.92;;;;;;;7.00;56.78;95283.41;10436176;27;100484;-64
2022/04/20 01:09:14;;;;;;;2.97;1.70;;;;;;;7.04;56.80;95281.34;10439691;27;97283;-64
2022/04/20 01:14:17;;;;;;;2.55;1.85;;;;;;;6.99;56.86;95288.78;10442235;27;96797;-64
2022/04/20 01:19:21;;;;;;;3.55;2.25;;;;;;;6.98;56.97;95287.16;10436041;27;99097;-64
2022/04/20 01:24:25;;;;;;;4.30;1.80;;;;;;;6.89;56.67;95290.59;10431939;27;100362;-64
2022/04/20 01:29:29;;;;;;;2.30;1.80;;;;;;;6.78;56.75;95282.06;10433935;27;98423;-64
2022/04/20 01:34:33;;;;;;;2.60;1.67;;;;;;;6.67;57.31;95274.50;10427521;27;98154;-64
2022/04/20 01:39:37;;;;;;;3.08;1.80;;;;;;;6.44;58.27;95274.91;10433455;27;96785;-64
2022/04/20 01:44:40;;;;;;;3.95;1.98;;;;;;;6.37;58.64;95284.25;10455611;27;97136;-64
2022/04/20 01:49:43;;;;;;;2.67;1.75;;;;;;;6.46;58.82;95282.56;10441685;27;97125;-64
2022/04/20 01:54:47;;;;;;;2.35;1.58;;;;;;;6.43;58.11;95288.03;10455359;27;96936;-64
2022/04/20 01:59:50;;;;;;;2.75;1.70;;;;;;;6.38;58.20;95275.50;10444848;27;96771;-64
2022/04/20 02:04:53;;;;;;;3.10;1.60;;;;;;;6.20;58.91;95272.03;10435441;27;97774;-64
2022/04/20 02:09:57;;;;;;;3.72;2.00;;;;;;;6.15;59.74;95274.25;10440047;27;96988;-64
2022/04/20 02:15:00;;;;;;;2.25;1.40;;;;;;;6.20;58.92;95272.03;10423814;27;96826;-64
2022/04/20 02:20:03;;;;;;;2.80;1.45;;;;;;;6.24;58.28;95278.56;10456355;27;96925;-64
2022/04/20 02:25:08;;;;;;;3.25;1.60;;;;;;;6.23;57.89;95275.16;10446029;27;96920;-64
2022/04/20 02:30:12;;;;;;;3.00;1.65;;;;;;;6.30;56.99;95288.38;10438354;27;96768;-64
2022/04/20 02:35:15;;;;;;;2.10;1.50;;;;;;;6.25;57.29;95282.81;10435213;27;96807;-64
2022/04/20 02:40:19;;;;;;;2.83;1.80;;;;;;;6.10;58.42;95287.66;10445844;27;96880;-64
2022/04/20 02:45:22;;;;;;;1.83;1.47;;;;;;;6.12;57.84;95282.31;10424914;27;98287;-64
2022/04/20 02:50:25;;;;;;;4.53;2.00;;;;;;;6.14;57.47;95288.16;10437973;27;96887;-64
2022/04/20 02:55:29;;;;;;;2.65;1.58;;;;;;;6.00;58.85;95292.88;10447235;27;96765;-64
2022/04/20 03:00:32;;;;;;;2.40;1.67;;;;;;;5.85;59.21;95294.31;10418337;27;96999;-64
2022/04/20 03:05:35;;;;;;;2.65;1.80;;;;;;;5.79;59.73;95287.94;10437245;27;96714;-64
2022/04/20 03:10:39;;;;;;;2.22;1.65;;;;;;;5.86;58.99;95301.94;10427470;27;97528;-64
2022/04/20 03:15:43;;;;;;;4.07;1.80;;;;;;;5.83;58.13;95296.22;10432520;27;96850;-64
2022/04/20 03:20:45;;;;;;;2.08;1.60;;;;;;;5.81;57.77;95295.53;10450768;27;100527;-64
2022/04/20 03:25:50;;;;;;;2.08;1.30;;;;;;;5.74;57.36;95302.25;10437512;27;96771;-64
2022/04/20 03:30:52;;;;;;;1.85;1.50;;;;;;;5.51;58.52;95299.97;10425451;27;96792;-64
2022/04/20 03:35:55;;;;;;;3.70;1.55;;;;;;;5.49;58.75;95302.72;10450415;27;96799;-64
2022/04/20 03:41:00;;;;;;;3.03;1.70;;;;;;;5.46;59.06;95299.56;10437006;27;97195;-64
2022/04/20 03:46:03;;;;;;;3.13;1.70;;;;;;;5.26;59.50;95299.63;10431136;27;98504;-64
2022/04/20 03:51:06;;;;;;;2.05;1.50;;;;;;;5.15;60.13;95289.41;10436501;27;97815;-64
2022/04/20 03:56:10;;;;;;;3.38;1.63;;;;;;;5.03;60.20;95286.16;10427133;27;96763;-64
2022/04/20 04:01:13;;;;;;;2.13;1.25;;;;;;;5.04;59.80;95299.91;10442491;27;100477;-64
2022/04/20 04:06:16;;;;;;;1.48;1.20;;;;;;;5.04;59.62;95305.06;10437521;27;96788;-64
2022/04/20 04:11:20;;;;;;;2.05;1.48;;;;;;;5.01;60.37;95305.34;10434075;27;100826;-64
2022/04/20 04:16:23;;;;;;;2.83;1.77;;;;;;;4.93;60.01;95314.59;10442802;27;97920;-63
2022/04/20 04:21:26;;;;;;;2.05;1.48;;;;;;;4.97;60.64;95320.34;10432967;27;100780;-64
2022/04/20 04:26:30;;;;;;;3.78;1.40;;;;;;;4.84;60.75;95314.63;10441928;27;96724;-64
2022/04/20 04:31:34;;;;;;;2.83;1.50;;;;;;;4.57;61.58;95314.28;10432877;27;96705;-64
2022/04/20 04:36:37;;;;;;;3.63;1.80;;;;;;;4.52;61.38;95308.69;10452759;27;97923;-64
2022/04/20 04:41:42;;;;;;;3.97;1.60;;;;;;;4.53;60.85;95307.75;10440446;27;96846;-64
2022/04/20 04:52:11;;;;;;;3.13;1.52;;;;;;;4.36;60.96;95306.63;10440891;27;98245;-64
2022/04/20 04:57:15;;;;;;;3.28;1.75;;;;;;;4.33;62.28;95311.25;10446658;27;97518;-64
2022/04/20 05:02:19;;;;;;;3.30;1.60;;;;;;;4.35;61.50;95304.16;10465088;27;103334;-64
2022/04/20 05:07:23;;;;;;;3.23;1.60;;;;;;;4.41;61.94;95303.66;10461474;27;97960;-64
2022/04/20 05:12:28;;;;;;;4.38;1.70;;;;;;;4.55;61.92;95305.03;10445916;27;96904;-64
2022/04/20 05:17:31;;;;;;;3.05;1.55;;;;;;;4.60;61.59;95315.00;10443548;27;96725;-64
2022/04/20 05:22:33;;;;;;;3.72;1.52;;;;;;;4.67;61.07;95323.84;10441176;27;96735;-64
2022/04/20 05:27:38;;;;;;;2.45;1.58;;;;;;;4.67;60.52;95329.03;10441426;27;96848;-64
2022/04/20 05:32:41;;;;;;;2.75;1.55;;;;;;;4.71;60.57;95336.38;10443914;27;97147;-64
2022/04/20 05:43:07;;;;;;;3.80;1.80;;;;;;;5.00;59.92;95339.97;10450410;27;97014;-64
2022/04/20 05:48:10;;;;;;;2.55;2.00;;;;;;;5.00;60.66;95339.97;10443260;27;100474;-64
2022/04/20 05:53:13;;;;;;;2.30;1.70;;;;;;;5.13;60.86;95337.91;10438254;27;98527;-64
2022/04/20 05:58:17;;;;;;;4.03;2.17;;;;;;;5.26;60.83;95330.69;10437606;27;97425;-64
2022/04/20 06:03:20;;;;;;;4.97;1.95;;;;;;;5.38;61.26;95325.38;10440035;27;98001;-64
2022/04/20 06:08:23;;;;;;;3.65;2.13;;;;;;;5.55;61.27;95324.66;10441566;27;99897;-64
2022/04/20 06:13:29;;;;;;;2.83;1.80;;;;;;;5.81;59.70;95321.44;10457299;27;99722;-64
2022/04/20 06:18:32;;;;;;;2.90;1.85;;;;;;;5.98;59.08;95320.75;10430756;27;96997;-64
2022/04/20 06:23:34;;;;;;;2.38;1.90;;;;;;;6.21;59.05;95325.56;10437731;27;98129;-64
2022/04/20 06:28:39;;;;;;;6.45;2.40;;;;;;;6.35;57.65;95322.47;10433451;27;97748;-64
2022/04/20 06:33:42;;;;;;;4.13;2.63;;;;;;;6.51;57.35;95321.03;10436656;27;98624;-64
2022/04/20 06:38:44;;;;;;;5.60;2.42;;;;;;;6.68;57.34;95322.84;10432859;27;98528;-64
2022/04/20 06:43:48;;;;;;;5.68;2.53;;;;;;;6.78;56.22;95309.78;10440306;27;97821;-64
2022/04/20 06:48:51;;;;;;;5.40;2.20;;;;;;;6.91;56.11;95312.03;10429384;27;98553;-64
2022/04/20 06:59:16;;;;;;;4.18;2.50;;;;;;;7.26;55.53;95316.44;10435250;27;96911;-64
2022/04/20 07:04:20;;;;;;;5.18;2.90;;;;;;;7.54;55.57;95313.72;10432799;27;98934;-64
2022/04/20 07:09:23;;;;;;;5.93;3.13;;;;;;;7.81;55.78;95312.78;10441098;27;103880;-64
2022/04/20 07:14:27;;;;;;;4.57;2.90;;;;;;;8.09;55.30;95304.78;10440596;27;97583;-64
2022/04/20 07:19:30;;;;;;;4.38;2.50;;;;;;;8.27;55.17;95302.91;10423391;27;100401;-64
2022/04/20 07:24:33;;;;;;;4.18;2.88;;;;;;;8.54;54.99;95303.66;10422454;27;97061;-64
2022/04/20 07:29:37;;;;;;;5.28;2.70;;;;;;;8.81;54.51;95306.97;10423279;27;96776;-64
2022/04/20 07:34:41;;;;;;;3.90;3.05;;;;;;;9.09;53.65;95294.50;10447545;27;96871;-64
2022/04/20 07:39:44;;;;;;;5.05;3.33;;;;;;;9.38;53.65;95301.81;10450300;27;96865;-64
2022/04/20 07:44:49;;;;;;;4.07;3.05;;;;;;;9.62;53.25;95288.00;10453543;27;96906;-64
2022/04/20 07:55:15;;;;;;;4.25;3.15;;;;;;;10.17;52.38;95296.84;10449078;27;96662;-64
2022/04/20 08:00:20;;;;;;;3.85;2.90;;;;;;;10.48;52.45;95285.63;10433658;27;96835;-64
2022/04/20 08:05:23;;;;;;;5.13;3.00;;;;;;;10.79;52.11;95295.25;10423308;27;96860;-64
2022/04/20 08:10:26;;;;;;;5.13;3.17;;;;;;;11.06;51.78;95296.56;10424514;27;96984;-64
2022/04/20 08:15:31;;;;;;;4.43;2.85;;;;;;;11.27;51.12;95288.06;10421408;27;96711;-64
2022/04/20 08:20:34;;;;;;;6.97;3.00;;;;;;;11.47;51.33;95296.28;10422848;27;96710;-64
2022/04/20 08:25:36;;;;;;;5.45;3.58;;;;;;;11.55;50.92;95298.84;10426379;27;97314;-64
2022/04/20 08:30:41;;;;;;;4.22;3.00;;;;;;;11.72;51.01;95299.50;10422007;27;97291;-64
2022/04/20 08:35:45;;;;;;;4.85;3.30;;;;;;;11.82;50.46;95293.22;10420953;27;96885;-64
2022/04/20 08:40:48;;;;;;;4.88;2.85;;;;;;;11.96;49.89;95295.03;10424460;27;96986;-64
2022/04/20 08:45:53;;;;;;;5.43;3.03;;;;;;;12.23;49.86;95290.97;10423317;27;96771;-64
2022/04/20 08:50:56;;;;;;;;;;;;;;;12.39;50.22;95283.94;10419210;27;96680;-64
2022/04/20 09:01:19;;;;;;;4.63;3.20;;;;;;;12.77;48.71;95279.34;10430531;27;97239;-64
2022/04/20 09:06:22;;;;;;;5.53;2.83;;;;;;;13.05;48.65;95276.81;10426686;27;97015;-64
2022/04/20 09:11:28;;;;;;;4.18;3.33;;;;;;;13.35;48.37;95281.13;10441173;27;96942;-64
2022/04/20 09:16:33;;;;;;;4.18;2.90;;;;;;;13.56;47.90;95270.59;10430028;27;96794;-64
2022/04/20 09:21:36;;;;;;;5.68;3.05;;;;;;;13.62;48.44;95275.13;10427310;27;97903;-64
2022/04/20 09:26:51;;;;;;;4.22;3.38;;;;;;;13.81;47.86;95268.38;10427433;27;96864;-64
2022/04/20 09:31:55;;;;;;;5.30;3.35;;;;;;;13.81;47.76;95268.38;10432600;27;97109;-63
2022/04/20 09:36:58;;;;;;;7.35;3.97;;;;;;;13.94;47.25;95267.66;10429806;27;96904;-64
2022/04/20 09:42:05;;;;;;;4.80;3.42;;;;;;;14.07;46.53;95271.34;10426456;27;96970;-64
2022/04/20 09:52:36;;;;;;;4.63;3.30;;;;;;;14.46;45.92;95259.47;10428971;27;96718;-64
2022/04/20 09:57:40;;;;;;;5.30;3.72;;;;;;;14.46;45.88;95254.22;10426605;27;96938;-64
2022/04/20 10:02:48;;;;;;;5.60;3.55;;;;;;;14.61;45.65;95248.78;10426542;27;96970;-64
2022/04/20 10:07:54;;;;;;;6.25;3.38;;;;;;;14.73;45.92;95244.59;10428275;27;96698;-64
2022/04/20 10:12:58;;;;;;;4.97;3.70;;;;;;;14.84;45.89;95246.66;10428412;27;96808;-64
2022/04/20 10:18:03;;;;;;;5.63;3.40;;;;;;;15.03;45.24;95250.34;10423251;27;99855;-64
2022/04/20 10:23:07;;;;;;;6.25;3.22;;;;;;;15.20;45.68;95249.94;10430454;27;96962;-64
2022/04/20 10:28:18;;;;;;;5.97;3.45;;;;;;;15.34;45.92;95246.34;10427865;27;97035;-64
2022/04/20 10:33:29;;;;;;;4.30;3.50;;;;;;;15.45;45.64;95247.53;10423633;27;96994;-64
2022/04/20 10:38:33;;;;;;;5.32;3.60;;;;;;;15.54;44.78;95242.88;10424700;27;96692;-64
2022/04/20 10:43:39;;;;;;;4.33;3.40;;;;;;;15.61;45.03;95241.88;10427684;27;97946;-64
2022/04/20 10:48:52;;;;;;;4.35;3.38;;;;;;;15.75;44.69;95241.88;10425025;27;96977;-64
2022/04/20 10:53:55;;;;;;;7.15;4.00;;;;;;;15.90;44.50;95239.03;10422007;27;96688;-64
2022/04/20 10:59:10;;;;;;;5.47;3.50;;;;;;;15.83;44.75;95237.22;10429272;27;96942;-64
2022/04/20 11:04:14;;;;;;;;;;;;;;;15.78;44.55;95247.56;10427282;27;96784;-64
2022/04/20 11:09:57;;;;;;;7.82;4.13;;;;;;;15.65;43.46;95237.03;10422089;27;96736;-64
2022/04/20 11:20:25;;;;;;;6.40;3.85;;;;;;;15.04;44.66;95236.16;10425365;27;98459;-64
2022/04/20 11:25:30;;;;;;;6.43;3.97;;;;;;;15.20;44.71;95223.63;10425941;27;96796;-64
2022/04/20 11:30:36;;;;;;;7.57;3.87;;;;;;;15.56;44.10;95225.88;10421709;27;96723;-64
2022/04/20 11:35:57;;;;;;;4.72;3.60;;;;;;;15.96;43.69;95219.78;10422795;27;96829;-64
2022/04/20 11:41:00;;;;;;;4.70;3.45;;;;;;;15.96;43.58;95217.13;10426206;27;96979;-64
2022/04/20 11:46:03;;;;;;;8.32;4.03;;;;;;;15.93;43.52;95217.53;10425463;27;96862;-64
2022/04/20 11:51:09;;;;;;;6.60;3.95;;;;;;;16.04;42.31;95214.28;10420814;27;97758;-64
2022/04/20 11:56:12;;;;;;;6.15;4.03;;;;;;;16.18;42.32;95215.84;10424561;27;97074;-64
2022/04/20 12:01:15;;;;;;;5.40;4.05;;;;;;;16.30;42.20;95202.84;10424246;27;96779;-64
2022/04/20 12:06:24;;;;;;;4.18;3.40;;;;;;;16.51;42.03;95207.00;10421782;27;102718;-64
2022/04/20 12:11:27;;;;;;;7.13;3.63;;;;;;;16.68;41.83;95207.34;10436019;27;96933;-64
2022/04/20 12:16:34;;;;;;;6.55;4.00;;;;;;;16.94;41.28;95205.59;10425974;27;96841;-64
2022/04/20 12:21:44;;;;;;;6.40;4.40;;;;;;;17.08;40.96;95206.34;10421453;27;96804;-64
2022/04/20 12:26:48;;;;;;;5.80;4.07;;;;;;;16.91;40.50;95198.91;10420881;27;96948;-64
2022/04/20 12:31:54;;;;;;;6.33;3.53;;;;;;;17.16;39.73;95198.13;10424061;27;96858;-64
2022/04/20 12:37:03;;;;;;;7.07;3.72;;;;;;;17.28;39.68;95193.78;10431935;27;97196;-64
2022/04/20 12:42:08;;;;;;;6.78;3.50;;;;;;;17.80;39.99;95195.38;10426577;27;97148;-64
2022/04/20 12:47:36;;;;;;;4.50;3.60;;;;;;;18.11;39.25;95197.09;10430243;27;96876;-65
2022/04/20 12:52:50;;;;;;;5.10;3.50;;;;;;;18.24;39.57;95182.94;10430608;27;100230;-64
2022/04/20 13:03:16;;;;;;;9.77;3.10;;;;;;;19.24;38.22;95174.47;10425737;27;97169;-65
2022/04/20 13:08:21;;;;;;;8.63;3.87;;;;;;;19.49;38.03;95172.63;10430058;27;100015;-64
2022/04/20 13:13:25;;;;;;;6.63;3.97;;;;;;;19.77;36.87;95162.16;10429332;27;97018;-65
2022/04/20 13:18:28;;;;;;;5.27;3.50;;;;;;;20.31;36.62;95156.66;10426022;27;96918;-65
2022/04/20 13:23:32;;;;;;;4.93;3.00;;;;;;;20.50;36.05;95157.31;10428395;27;96879;-64
2022/04/20 13:28:34;;;;;;;;;;;;;;;20.60;36.28;95159.34;10430463;27;96719;-64
2022/04/20 13:33:39;;;;;;;5.05;3.53;;;;;;;20.70;35.61;95154.22;10428649;27;96681;-64
2022/04/20 13:38:43;;;;;;;6.97;3.45;;;;;;;20.84;34.96;95151.28;10427168;27;99161;-64
2022/04/20 13:43:46;;;;;;;5.70;3.47;;;;;;;20.75;35.04;95148.22;10428962;27;97232;-64
2022/04/20 13:48:48;;;;;;;4.18;3.40;;;;;;;21.07;35.02;95153.84;10428652;27;97196;-65
2022/04/20 13:53:52;;;;;;;5.50;3.30;;;;;;;21.42;34.30;95146.69;10424562;27;97054;-64
2022/04/20 13:58:57;;;;;;;;;;;;;;;21.58;34.86;95139.72;10427775;27;97071;-65
2022/04/20 14:04:00;;;;;;;3.60;2.88;;;;;;;21.58;34.25;95142.38;10427703;27;96902;-65
2022/04/20 14:09:06;;;;;;;3.72;3.00;;;;;;;21.63;34.02;95139.84;10423833;27;96897;-64
2022/04/20 14:14:09;;;;;;;5.28;3.25;;;;;;;21.73;33.53;95139.16;10428924;27;96974;-65
2022/04/20 14:19:12;;;;;;;5.90;3.65;;;;;;;21.76;33.26;95134.19;10428840;27;96736;-64
2022/04/20 14:24:16;;;;;;;5.82;3.72;;;;;;;21.86;33.27;95134.28;10424056;27;96775;-65
2022/04/20 14:34:41;;;;;;;8.32;3.67;;;;;;;21.99;32.73;95133.16;10428023;27;97050;-65
2022/04/20 14:39:46;;;;;;;7.00;3.10;;;;;;;21.97;32.59;95135.25;10426671;27;97147;-64
2022/04/20 14:44:49;;;;;;;5.85;3.30;;;;;;;22.04;32.64;95137.75;10423635;27;96764;-65
2022/04/20 14:49:52;;;;;;;5.00;2.70;;;;;;;21.87;32.49;95135.91;10427663;27;96745;-65
2022/04/20 14:54:56;;;;;;;3.75;2.55;;;;;;;21.67;32.64;95135.63;10426776;27;98745;-65
2022/04/20 15:00:17;;;;;;;7.30;3.25;;;;;;;21.58;32.64;95134.41;10421107;27;96699;-65
2022/04/20 15:05:20;;;;;;;5.43;3.27;;;;;;;21.32;33.25;95128.72;10426295;27;97045;-64
2022/04/20 15:10:24;;;;;;;3.90;2.22;;;;;;;20.92;33.22;95127.03;10426686;27;96860;-65
2022/04/20 15:15:27;;;;;;;6.15;3.40;;;;;;;20.89;33.59;95128.31;10422302;27;96955;-64
2022/04/20 15:20:30;;;;;;;3.70;2.60;;;;;;;20.80;33.32;95143.00;10425478;27;97036;-65
2022/04/20 15:25:34;;;;;;;5.50;3.13;;;;;;;20.81;33.26;95141.16;10426122;27;96791;-64
2022/04/20 15:30:38;;;;;;;;;;;;;;;20.57;33.81;95136.72;10426200;27;96675;-65
2022/04/20 15:35:42;;;;;;;5.25;2.90;;;;;;;20.28;33.67;95135.91;10423388;27;97248;-64
2022/04/20 15:40:46;;;;;;;5.77;3.70;;;;;;;20.18;33.78;95136.53;10425855;27;100111;-65
2022/04/20 15:45:49;;;;;;;5.18;2.85;;;;;;;19.81;34.92;95138.66;10434752;27;97834;-64
2022/04/20 15:50:52;;;;;;;7.97;3.13;;;;;;;19.79;35.46;95132.78;10448215;27;96996;-64
2022/04/20 16:01:17;;;;;;;5.10;2.92;;;;;;;19.82;35.40;95129.69;10434829;27;98563;-64
2022/04/20 16:06:22;;;;;;;3.72;2.60;;;;;;;19.90;35.51;95129.31;10439845;27;96898;-65
2022/04/20 16:11:28;;;;;;;3.92;2.50;;;;;;;20.12;35.22;95126.06;10459752;27;96934;-65
2022/04/20 16:16:31;;;;;;;5.65;2.72;;;;;;;20.23;34.56;95138.47;10457450;27;96794;-65
2022/04/20 16:21:34;;;;;;;6.10;2.77;;;;;;;20.22;34.78;95136.03;10456022;27;97003;-65
2022/04/20 16:26:38;;;;;;;5.30;2.38;;;;;;;20.15;35.04;95142.31;10468312;27;97186;-65
2022/04/20 16:31:41;;;;;;;4.65;2.50;;;;;;;20.11;35.53;95138.53;10462556;27;98128;-65
2022/04/20 16:36:44;;;;;;;5.95;2.70;;;;;;;20.10;35.04;95133.44;10450211;27;97433;-65
2022/04/20 16:41:49;;;;;;;4.18;2.40;;;;;;;19.77;35.48;95138.31;10455341;27;99574;-65
2022/04/20 16:46:51;;;;;;;4.22;2.50;;;;;;;19.45;36.46;95135.22;10460401;27;96864;-65
2022/04/20 16:51:54;;;;;;;5.80;2.42;;;;;;;19.08;37.26;95138.06;10455574;27;98739;-64
2022/04/20 16:56:59;;;;;;;4.38;2.78;;;;;;;18.88;37.55;95131.25;10452136;27;98530;-65
2022/04/20 17:02:02;;;;;;;;;;;;;;;18.57;37.54;95131.44;10448023;27;97221;-64
2022/04/20 17:07:06;;;;;;;4.47;2.83;;;;;;;18.25;37.89;95129.03;10452384;27;98401;-65
2022/04/20 17:12:10;;;;;;;4.75;2.65;;;;;;;18.06;38.38;95126.41;10458733;27;97285;-65
2022/04/20 17:17:13;;;;;;;;;;;;;;;17.78;38.37;95124.25;10456515;27;98296;-65
2022/04/20 17:27:38;;;;;;;5.45;2.90;;;;;;;17.51;40.09;95118.47;10453295;27;97363;-65
2022/04/20 17:32:41;;;;;;;5.35;3.35;;;;;;;17.54;39.38;95118.00;10452028;27;97008;-62
2022/04/20 17:37:44;;;;;;;5.35;2.90;;;;;;;17.40;39.27;95109.41;10444702;27;97740;-64
2022/04/20 17:42:51;;;;;;;4.35;3.13;;;;;;;17.41;39.71;95116.31;10443740;27;98928;-64
2022/04/20 17:47:54;;;;;;;3.92;2.88;;;;;;;17.36;39.53;95108.25;10443368;27;96904;-64
2022/04/20 17:52:57;;;;;;;5.10;2.85;;;;;;;17.09;39.90;95108.50;10427250;27;96837;-64
2022/04/20 17:58:01;;;;;;;4.60;3.05;;;;;;;16.83;40.44;95108.69;10445194;27;99566;-64
2022/04/20 18:03:04;;;;;;;4.68;3.30;;;;;;;16.63;40.67;95101.69;10443680;27;99081;-64
2022/04/20 18:08:07;;;;;;;5.93;2.60;;;;;;;16.44;42.12;95119.25;10442452;27;99197;-64
2022/04/20 18:13:12;;;;;;;11.00;6.28;;;;;;;16.24;43.09;95117.53;10432355;27;97902;-63
2022/04/20 18:18:15;;;;;;;4.15;2.28;;;;;;;16.10;43.89;95123.88;10434849;27;96765;-65
2022/04/20 18:23:18;;;;;;;31.52;18.65;;;;;;;16.00;43.41;95128.81;10427276;27;98244;-65
2022/04/20 18:28:22;;;;;;;5.70;2.88;;;;;;;16.06;42.98;95130.59;10424928;27;98339;-64
2022/04/20 18:33:25;;;;;;;6.70;3.05;;;;;;;15.87;43.96;95135.72;10437277;27;98024;-64
2022/04/20 18:38:28;;;;;;;3.50;2.20;;;;;;;15.70;44.55;95142.44;10438133;27;96970;-64
2022/04/20 18:43:32;;;;;;;6.78;3.28;;;;;;;15.59;44.61;95148.34;10441138;27;98299;-64
2022/04/20 18:48:40;;;;;;;37.50;27.23;;;;;;;15.41;45.42;95147.13;10438380;27;98700;-65
2022/04/20 18:59:05;;;;;;;7.03;3.13;;;;;;;15.20;46.65;95157.88;10432676;27;97120;-63
2022/04/20 19:04:47;;;;;;;24.63;20.20;;;;;;;15.05;47.42;95169.41;10430251;27;96986;-63
2022/04/20 19:09:32;;;;;;;7.73;5.87;;;;;;;15.06;48.01;95173.66;10432360;27;98392;-64
2022/04/20 19:14:38;;;;;;;10.97;8.43;;;;;;;15.11;47.10;95179.13;10437498;27;97520;-64
2022/04/20 19:19:40;;;;;;;50.33;19.55;;;;;;;14.98;48.02;95183.56;10434618;27;97367;-64
2022/04/20 19:24:43;;;;;;;6.05;2.97;;;;;;;14.79;48.67;95179.91;10424849;27;99127;-63
2022/04/20 19:29:48;;;;;;;3.78;2.55;;;;;;;14.74;48.19;95188.38;10442880;27;99246;-64
2022/04/20 19:34:51;;;;;;;3.58;2.40;;;;;;;14.75;48.55;95184.75;10432983;27;96898;-64
2022/04/20 19:39:54;;;;;;;4.35;2.63;;;;;;;14.73;48.19;95187.59;10432219;27;97081;-64
2022/04/20 19:44:59;;;;;;;4.30;2.80;;;;;;;14.73;48.06;95182.31;10436409;27;98408;-64
2022/04/20 19:50:02;;;;;;;9.70;5.97;;;;;;;14.75;47.67;95182.13;10450382;27;97292;-64
2022/04/20 19:55:06;;;;;;;5.90;3.45;;;;;;;14.68;47.01;95176.03;10435807;27;98850;-64
2022/04/20 20:00:30;;;;;;;3.92;2.70;;;;;;;14.48;47.64;95178.63;10427552;27;97474;-64
2022/04/20 20:05:33;;;;;;;5.07;2.72;;;;;;;14.27;48.27;95188.22;10436963;27;96868;-64
2022/04/20 20:10:37;;;;;;;4.68;2.55;;;;;;;14.16;48.19;95180.91;10426819;27;98348;-64
2022/04/20 20:15:41;;;;;;;3.67;2.27;;;;;;;13.98;49.11;95169.13;10434773;27;98513;-64
2022/04/20 20:20:45;;;;;;;3.40;2.20;;;;;;;13.87;49.20;95172.28;10435665;27;97693;-65
2022/04/20 20:31:10;;;;;;;6.10;2.50;;;;;;;13.76;49.20;95180.72;10440644;27;97146;-63
2022/04/20 20:36:13;;;;;;;4.37;2.17;;;;;;;13.80;48.17;95181.94;10424096;27;99002;-64
2022/04/20 20:41:17;;;;;;;4.78;2.40;;;;;;;13.78;47.64;95178.72;10421644;27;99029;-64
2022/04/20 20:46:21;;;;;;;5.65;3.20;;;;;;;13.74;48.60;95175.66;10425987;27;98335;-64
2022/04/20 20:51:24;;;;;;;32.50;15.48;;;;;;;13.59;49.47;95186.25;10423569;27;97520;-64
2022/04/20 20:56:27;;;;;;;6.78;3.58;;;;;;;13.34;49.52;95182.44;10429599;27;100482;-63
2022/04/20 21:01:31;;;;;;;7.20;2.50;;;;;;;13.22;49.79;95182.16;10434968;27;99409;-64
2022/04/20 21:06:34;;;;;;;6.53;2.85;;;;;;;13.15;50.49;95182.13;10439087;27;98636;-63
2022/04/20 21:11:37;;;;;;;5.95;2.50;;;;;;;12.89;51.68;95190.53;10442251;27;98113;-64
2022/04/20 21:16:41;;;;;;;5.82;2.30;;;;;;;12.66;52.09;95182.84;10445460;27;102397;-64
2022/04/20 21:21:45;;;;;;;5.10;2.57;;;;;;;12.58;51.77;95180.34;10442017;27;98373;-65
2022/04/20 21:26:48;;;;;;;4.95;2.20;;;;;;;12.43;51.58;95191.69;10450658;27;97292;-64
2022/04/20 21:31:52;;;;;;;4.32;2.20;;;;;;;12.41;50.96;95187.63;10431543;27;96807;-64
2022/04/20 21:36:55;;;;;;;3.50;2.00;;;;;;;12.46;50.31;95188.69;10447281;27;100474;-65
2022/04/20 21:41:58;;;;;;;3.95;2.60;;;;;;;12.48;50.10;95199.00;10444768;27;96833;-64
2022/04/20 21:47:03;;;;;;;5.32;2.60;;;;;;;12.45;50.37;95200.16;10436860;27;98184;-65
2022/04/20 21:52:07;;;;;;;3.72;3.22;;;;;;;12.40;50.07;95205.13;10441180;27;97129;-65
2022/04/20 21:57:11;;;;;;;7.68;3.63;;;;;;;12.35;51.17;95210.13;10436120;27;98580;-64
2022/04/20 22:12:59;;;;;;;4.38;2.92;;;;;;;12.11;51.01;95206.84;10432388;27;96900;-64
2022/04/20 22:18:03;;;;;;;4.50;2.90;;;;;;;12.05;51.13;95210.16;10431720;27;97626;-64
2022/04/20 22:23:10;;;;;;;6.75;3.05;;;;;;;11.92;51.09;95202.97;10465364;27;97679;-64
2022/04/20 22:28:12;;;;;;;3.97;3.03;;;;;;;11.84;51.71;95207.47;10449063;27;96847;-64
2022/04/20 22:33:17;;;;;;;3.83;2.72;;;;;;;11.73;52.72;95209.56;10442067;27;101630;-64
2022/04/20 22:38:20;;;;;;;;;;;;;;;11.53;52.46;95213.69;10443689;27;97293;-64
2022/04/20 22:43:23;;;;;;;3.40;2.63;;;;;;;11.20;53.44;95200.88;10449128;27;97003;-64
2022/04/20 22:48:27;;;;;;;4.05;2.67;;;;;;;10.94;53.56;95211.72;10464219;27;98017;-64
2022/04/20 22:53:30;;;;;;;4.27;2.70;;;;;;;10.76;54.08;95214.63;10436759;27;96933;-64
2022/04/20 22:58:33;;;;;;;4.85;2.97;;;;;;;10.56;54.15;95219.47;10435360;27;96832;-64
2022/04/20 23:03:37;;;;;;;3.95;2.47;;;;;;;10.18;54.98;95212.34;10428579;27;96730;-64
2022/04/20 23:08:40;;;;;;;3.67;1.97;;;;;;;9.91;54.33;95215.41;10432238;27;96935;-64
2022/04/20 23:13:43;;;;;;;2.22;1.65;;;;;;;9.66;54.83;95218.06;10426482;27;97432;-64
2022/04/20 23:18:47;;;;;;;3.80;1.60;;;;;;;9.47;54.60;95220.06;10432327;27;97150;-63
2022/04/20 23:23:50;;;;;;;3.80;1.52;;;;;;;9.35;54.42;95216.16;10419251;27;97022;-64
2022/04/20 23:28:53;;;;;;;2.53;1.55;;;;;;;9.32;54.72;95221.69;10439345;27;96778;-64
2022/04/20 23:33:57;;;;;;;1.98;1.38;;;;;;;9.20;54.71;95217.81;10442319;27;97195;-64
2022/04/20 23:39:00;;;;;;;1.75;1.40;;;;;;;8.96;54.91;95219.44;10448271;27;98055;-64
2022/04/20 23:44:03;;;;;;;2.78;1.60;;;;;;;8.96;54.76;95216.81;10446259;27;96891;-64
2022/04/20 23:49:07;;;;;;;3.45;1.73;;;;;;;8.90;55.52;95210.47;10424183;27;96955;-63
2022/04/20 23:54:10;;;;;;;1.75;1.42;;;;;;;8.80;55.90;95216.84;10435584;27;96891;-65
2022/04/20 23:59:13;;;;;;;2.80;1.38;;;;;;;8.81;54.94;95215.84;10425152;27;96982;-64
